• Join FlightAware (Why Join?)
  • Login
  • US Flag 
Gobble Gobble! 
02:04AM EST


 

Airport Tracker/Info


-or-


 

Live Flight TrackerFlight Track Log ✈ RPA3379 ✈ 08-Jul-2013 ✈ KCMH - KDCA

Flight Track Log - Related Links

Times and Time Zones

All times are in EDT time to prevent confusion due to time zone crossing. See the RPA3379 flight status page for this flight to view local times or setup timezone preferences in your user account.

Time Position Orientation Groundspeed Altitude Reporting Facility
EDT Latitude Longitude Course Direction KTS MPH feet Rate Location/Type
05:41PM 40.0031 -82.9211 96° East 157 181 1,800  Level Indianapolis Center
05:42PM 40.0067 -82.9722 275° West 162 186 3,400 2,220 Climbing Indianapolis Center
05:43PM 39.9700 -83.0317 231° Southwest 243 280 6,400 3,120 Climbing Indianapolis Center
05:44PM 39.9667 -82.5182 90° East  Level FlightAware Approximate
05:44PM 39.9325 -82.9458 120° Southeast 293 337 9,800  Level Indianapolis Center
05:45PM 39.9667 -82.3956 90° East  Level FlightAware Approximate
05:45PM 39.9347 -82.8311 89° East 311 358 12,800  Level Indianapolis Center
05:46PM 39.9595 -82.2734 96° East  Level FlightAware Approximate
05:47PM 39.9501 -82.1515 96° East  Level FlightAware Approximate
05:47PM 39.9367 -82.7094 89° East 324 373 15,600  Level Indianapolis Center
05:48PM 39.9453 -82.5592 86° East 347 399 17,700 1,740 Climbing Indianapolis Center
05:49PM 39.9525 -82.4108 86° East 395 455 19,200 1,800 Climbing Indianapolis Center
05:50PM 39.9592 -82.2575 87° East 418 481 21,500 1,920 Climbing Indianapolis Center
05:51PM 39.9658 -82.1008 87° East 424 488 23,200 1,500 Climbing Indianapolis Center
05:52PM 39.9733 -81.9378 87° East 442 509 24,700 840 Climbing Indianapolis Center
05:53PM 39.9803 -81.7750 87° East 447 514 25,000 120 Climbing Indianapolis Center
05:54PM 39.9789 -81.6136 91° East 452 520 25,000  Level Indianapolis Center
05:55PM 39.9258 -81.4656 115° Southeast 443 510 25,000  Level Indianapolis Center
05:56PM 39.8708 -81.3172 116° Southeast 446 513 25,000  Level Indianapolis Center
05:57PM 39.8144 -81.1669 116° Southeast 457 526 25,000  Level Indianapolis Center
05:58PM 39.7483 -80.9922 116° Southeast 450 518 25,000  Level Indianapolis Center
05:59PM 39.6919 -80.8483 117° Southeast 446 513 25,000  Level Indianapolis Center
06:00PM 39.6372 -80.7025 116° Southeast 448 516 25,000  Level Indianapolis Center
06:01PM 39.5803 -80.5561 117° Southeast 453 521 25,000  Level Indianapolis Center
06:02PM 39.5236 -80.4103 117° Southeast 453 521 25,000  Level Indianapolis Center
06:03PM 39.4936 -80.3275 115° Southeast 433 498 25,000  Level Washington Center
06:04PM 39.4347 -80.1786 117° Southeast 448 516 25,000  Level Washington Center
06:05PM 39.3775 -80.0328 117° Southeast 454 522 25,000  Level Washington Center
06:06PM 39.3225 -79.8869 116° Southeast 454 522 25,000  Level Washington Center
06:07PM 39.2881 -79.7347 106° East 454 522 25,000  Level Washington Center
06:08PM 39.2769 -79.5758 95° East 439 505 25,000  Level Washington Center
06:09PM 39.2633 -79.4117 96° East 446 513 25,000  Level Washington Center
06:10PM 39.2517 -79.2531 95° East 451 519 25,000  Level Washington Center
06:11PM 39.2336 -79.0939 98° East 446 513 25,000  Level Washington Center
06:12PM 39.2211 -78.9406 96° East 446 513 25,000 -900 Level Washington Center
06:13PM 39.2044 -78.7872 98° East 440 506 23,300 -2,220 Descending Washington Center
06:14PM 39.1917 -78.6392 96° East 430 495 20,700 -2,340 Descending Washington Center
06:15PM 39.1764 -78.4967 98° East 420 483 18,600 -1,860 Descending Washington Center
06:16PM 39.1589 -78.3594 99° East 398 458 17,000 -840 Descending Washington Center
06:17PM 39.1267 -78.2164 106° East 386 444 17,000 -120 Level Washington Center
06:18PM 39.0939 -78.0869 108° East 381 438 16,800 -1,140 Descending Washington Center
06:19PM 39.0611 -77.9575 108° East 381 438 14,800 -1,860 Descending Washington Center
06:20PM 39.0339 -77.8469 108° East 366 421 13,100 -1,680 Descending Washington Center
06:21PM 39.0047 -77.7419 110° East 343 395 11,400 -1,680 Descending Washington Center
06:22PM 38.9775 -77.6317 108° East 329 379 9,800 -1,500 Descending Washington Center
06:22PM 38.9500 -77.5667 119° Southeast 313 360 9,200 -1,080 Descending Potomac TRACON
06:23PM 38.9167 -77.4667 113° Southeast 303 349 8,200 -1,200 Descending Potomac TRACON
06:24PM 38.8833 -77.3833 117° Southeast 297 342 6,900 -1,140 Descending Potomac TRACON
06:25PM 38.8333 -77.2833 123° Southeast 289 333 6,000 -480 Descending Potomac TRACON
06:26PM 38.8000 -77.1833 113° Southeast 290 334 6,000 -600 Level Potomac TRACON
06:27PM 38.7500 -77.1167 134° Southeast 285 328 4,900 -1,920 Descending Potomac TRACON
06:28PM 38.6667 -77.1000 171° South 261 300 2,200 -1,500 Descending Potomac TRACON
06:29PM 38.6500 -77.0500 113° Southeast 239 275 2,000 -240 Descending Potomac TRACON